Kulurkudru, India

11:30 AM IST on July 27, 2017 (GMT +0530)
Mangalore | | Change Station

Elev 335 ft 12.92 °N, 74.88 °E | Updated 30 minutes ago

Partly Cloudy
Partly Cloudy
84 °F
Feels Like 92 °F
N
7
Wind Variable Wind from West

Today
High -- | Low -- °F
--% Chance of Precip.
Yesterday
High -- | Low -- °F
Precip. -- in
Pressure 29.83 in
Visibility 3.7 miles
Clouds Scattered Clouds 1200 ft
Scattered Clouds 2000 ft
Heat Index 92 °F
Dew Point 75 °F
Humidity 74%
Rainfall 0.00 in
Snow Depth Not available.
6:15 AM 6:58 PM
Waxing Crescent, 18% visible
METAR VOML 270530Z 28006KT 6000 SCT012 SCT020 29/24 Q1010 NOSIG
Pressure 29.83 in
Visibility 3.7 miles
Clouds Scattered Clouds 1200 ft
Scattered Clouds 2000 ft
Heat Index 92 °F
Dew Point 75 °F
Humidity 74%
Rainfall 0.00 in
Snow Depth Not available.
6:15 AM 6:58 PM
Waxing Crescent, 18% visible
METAR VOML 270530Z 28006KT 6000 SCT012 SCT020 29/24 Q1010 NOSIG

Get Severe Weather Alerts

Thanks for signing up!

Be on the lookout for a verification email in your inbox.

You'll start receiving the daily forecast at 6 AM.

×

10-Day Weather Forecast

No radar image for this location.
×

Almanac

Astronomy

Jul. 27, 2017 Rise Set
Actual Time
Civil Twilight
Nautical Twilight
Astronomical Twilight
Moon
Length of Visible Light
Length of Day
Tomorrow will be .
, % of the Moon is Illuminated

Today's Extremes

Country Highs Country Lows

Community

WunderPhotos

Category 6

Welcome to Category 6. This is the collective home for Weather Underground's featured writeups by Dr. Jeff Masters (right), Bob Henson (left), Chris Burt, and other regular contributors.

Nearby

Air Quality

  Air Quality AQ Index Pollutant
Not available.

Snow Depth

Station Depth Elevation

Earthquake Activity

City Distance Mag. Time & Date
Minimum magnitude displayed is 2.5.

Coastal Water Temperatures

Place Temperature

Stations

Nearby Weather Stations

Station Location Temp. Windchill Dew Point Humidity Wind Precip. Elev Updated Type